sensor_id;sensor_type;location;lat;lon;timestamp;P1;durP1;ratioP1;P2;durP2;ratioP2
78752;SDS011;68072;51.688;7.842;2023-04-01T00:02:05;3.38;;;1.17;;
78752;SDS011;68072;51.688;7.842;2023-04-01T00:04:31;3.05;;;1.30;;
78752;SDS011;68072;51.688;7.842;2023-04-01T00:06:57;1.80;;;1.00;;
78752;SDS011;68072;51.688;7.842;2023-04-01T00:09:22;1.75;;;0.90;;
78752;SDS011;68072;51.688;7.842;2023-04-01T00:11:48;1.67;;;1.00;;
78752;SDS011;68072;51.688;7.842;2023-04-01T00:14:13;2.33;;;1.00;;
78752;SDS011;68072;51.688;7.842;2023-04-01T00:16:38;1.75;;;1.15;;
78752;SDS011;68072;51.688;7.842;2023-04-01T00:19:04;3.33;;;1.25;;
78752;SDS011;68072;51.688;7.842;2023-04-01T00:21:29;1.38;;;0.90;;
78752;SDS011;68072;51.688;7.842;2023-04-01T00:23:55;1.70;;;0.90;;
78752;SDS011;68072;51.688;7.842;2023-04-01T00:26:21;4.85;;;1.48;;
78752;SDS011;68072;51.688;7.842;2023-04-01T00:28:46;5.25;;;1.20;;
78752;SDS011;68072;51.688;7.842;2023-04-01T00:31:12;1.75;;;0.80;;
78752;SDS011;68072;51.688;7.842;2023-04-01T00:33:38;1.80;;;0.73;;
78752;SDS011;68072;51.688;7.842;2023-04-01T00:36:23;0.93;;;0.90;;
78752;SDS011;68072;51.688;7.842;2023-04-01T00:38:49;2.72;;;0.80;;
78752;SDS011;68072;51.688;7.842;2023-04-01T00:41:15;1.90;;;0.98;;
78752;SDS011;68072;51.688;7.842;2023-04-01T00:46:08;1.55;;;0.93;;
78752;SDS011;68072;51.688;7.842;2023-04-01T00:48:34;1.00;;;0.70;;
78752;SDS011;68072;51.688;7.842;2023-04-01T00:51:02;1.73;;;0.82;;
78752;SDS011;68072;51.688;7.842;2023-04-01T00:53:30;1.75;;;0.60;;
78752;SDS011;68072;51.688;7.842;2023-04-01T00:55:59;1.23;;;1.00;;
78752;SDS011;68072;51.688;7.842;2023-04-01T00:58:26;1.48;;;0.82;;
78752;SDS011;68072;51.688;7.842;2023-04-01T01:00:52;2.25;;;1.13;;
78752;SDS011;68072;51.688;7.842;2023-04-01T01:03:18;2.78;;;0.90;;
78752;SDS011;68072;51.688;7.842;2023-04-01T01:08:18;5.43;;;1.30;;
78752;SDS011;68072;51.688;7.842;2023-04-01T01:11:05;1.75;;;1.17;;
78752;SDS011;68072;51.688;7.842;2023-04-01T01:13:56;1.40;;;0.93;;
78752;SDS011;68072;51.688;7.842;2023-04-01T01:16:27;1.73;;;1.02;;
78752;SDS011;68072;51.688;7.842;2023-04-01T01:19:04;0.93;;;0.80;;
78752;SDS011;68072;51.688;7.842;2023-04-01T01:24:08;1.60;;;1.20;;
78752;SDS011;68072;51.688;7.842;2023-04-01T01:26:52;1.23;;;1.15;;
78752;SDS011;68072;51.688;7.842;2023-04-01T01:35:49;2.42;;;0.95;;
78752;SDS011;68072;51.688;7.842;2023-04-01T01:38:23;1.27;;;0.63;;
78752;SDS011;68072;51.688;7.842;2023-04-01T01:40:51;0.80;;;0.80;;
78752;SDS011;68072;51.688;7.842;2023-04-01T01:43:20;1.83;;;0.93;;
78752;SDS011;68072;51.688;7.842;2023-04-01T01:45:49;1.75;;;1.20;;
78752;SDS011;68072;51.688;7.842;2023-04-01T01:48:17;0.70;;;0.70;;
78752;SDS011;68072;51.688;7.842;2023-04-01T01:50:44;1.88;;;0.90;;
78752;SDS011;68072;51.688;7.842;2023-04-01T01:53:11;2.72;;;0.73;;
78752;SDS011;68072;51.688;7.842;2023-04-01T01:55:41;1.33;;;0.90;;
78752;SDS011;68072;51.688;7.842;2023-04-01T01:58:13;0.80;;;0.80;;
78752;SDS011;68072;51.688;7.842;2023-04-01T02:00:50;0.93;;;0.70;;
78752;SDS011;68072;51.688;7.842;2023-04-01T02:03:19;2.97;;;1.17;;
78752;SDS011;68072;51.688;7.842;2023-04-01T02:05:46;0.63;;;0.63;;
78752;SDS011;68072;51.688;7.842;2023-04-01T02:10:43;0.80;;;0.80;;
78752;SDS011;68072;51.688;7.842;2023-04-01T02:13:20;0.95;;;0.95;;
78752;SDS011;68072;51.688;7.842;2023-04-01T02:15:52;1.13;;;1.13;;
78752;SDS011;68072;51.688;7.842;2023-04-01T02:18:20;1.42;;;1.10;;
78752;SDS011;68072;51.688;7.842;2023-04-01T02:20:46;1.85;;;1.00;;
78752;SDS011;68072;51.688;7.842;2023-04-01T02:23:11;0.70;;;0.70;;
78752;SDS011;68072;51.688;7.842;2023-04-01T02:25:37;1.50;;;0.90;;
78752;SDS011;68072;51.688;7.842;2023-04-01T02:28:04;2.05;;;0.85;;
78752;SDS011;68072;51.688;7.842;2023-04-01T02:30:32;1.80;;;1.05;;
78752;SDS011;68072;51.688;7.842;2023-04-01T02:32:59;0.95;;;0.95;;
78752;SDS011;68072;51.688;7.842;2023-04-01T02:35:25;2.08;;;0.80;;
78752;SDS011;68072;51.688;7.842;2023-04-01T02:37:51;5.93;;;1.23;;
78752;SDS011;68072;51.688;7.842;2023-04-01T02:40:17;1.95;;;0.82;;
78752;SDS011;68072;51.688;7.842;2023-04-01T02:42:43;1.52;;;1.10;;
78752;SDS011;68072;51.688;7.842;2023-04-01T02:45:08;1.17;;;0.88;;
78752;SDS011;68072;51.688;7.842;2023-04-01T02:47:34;0.80;;;0.80;;
78752;SDS011;68072;51.688;7.842;2023-04-01T02:50:00;1.05;;;0.98;;
78752;SDS011;68072;51.688;7.842;2023-04-01T02:52:25;1.00;;;1.00;;
78752;SDS011;68072;51.688;7.842;2023-04-01T02:54:51;0.88;;;0.88;;
78752;SDS011;68072;51.688;7.842;2023-04-01T02:57:17;4.00;;;1.20;;
78752;SDS011;68072;51.688;7.842;2023-04-01T02:59:42;1.90;;;1.15;;
78752;SDS011;68072;51.688;7.842;2023-04-01T03:02:08;1.20;;;1.10;;
78752;SDS011;68072;51.688;7.842;2023-04-01T03:04:33;1.98;;;0.95;;
78752;SDS011;68072;51.688;7.842;2023-04-01T03:06:58;0.88;;;0.88;;
78752;SDS011;68072;51.688;7.842;2023-04-01T03:09:24;1.73;;;0.95;;
78752;SDS011;68072;51.688;7.842;2023-04-01T03:11:49;0.60;;;0.60;;
78752;SDS011;68072;51.688;7.842;2023-04-01T03:14:15;0.82;;;0.82;;
78752;SDS011;68072;51.688;7.842;2023-04-01T03:16:40;3.85;;;0.80;;
78752;SDS011;68072;51.688;7.842;2023-04-01T03:19:05;1.67;;;0.90;;
78752;SDS011;68072;51.688;7.842;2023-04-01T03:21:31;0.70;;;0.70;;
78752;SDS011;68072;51.688;7.842;2023-04-01T03:23:56;1.35;;;0.90;;
78752;SDS011;68072;51.688;7.842;2023-04-01T03:26:21;0.90;;;0.90;;
78752;SDS011;68072;51.688;7.842;2023-04-01T03:28:47;0.98;;;0.90;;
78752;SDS011;68072;51.688;7.842;2023-04-01T03:31:13;0.65;;;0.65;;
78752;SDS011;68072;51.688;7.842;2023-04-01T03:33:38;1.23;;;0.75;;
78752;SDS011;68072;51.688;7.842;2023-04-01T03:36:04;1.42;;;0.70;;
78752;SDS011;68072;51.688;7.842;2023-04-01T03:38:31;0.70;;;0.70;;
78752;SDS011;68072;51.688;7.842;2023-04-01T03:40:58;1.55;;;0.80;;
78752;SDS011;68072;51.688;7.842;2023-04-01T03:43:23;1.88;;;0.90;;
78752;SDS011;68072;51.688;7.842;2023-04-01T03:45:49;0.60;;;0.60;;
78752;SDS011;68072;51.688;7.842;2023-04-01T03:48:16;0.70;;;0.70;;
78752;SDS011;68072;51.688;7.842;2023-04-01T03:50:42;0.63;;;0.63;;
78752;SDS011;68072;51.688;7.842;2023-04-01T03:53:08;0.73;;;0.40;;
78752;SDS011;68072;51.688;7.842;2023-04-01T03:55:34;0.43;;;0.43;;
78752;SDS011;68072;51.688;7.842;2023-04-01T03:58:00;0.50;;;0.50;;
78752;SDS011;68072;51.688;7.842;2023-04-01T04:02:52;0.57;;;0.57;;
78752;SDS011;68072;51.688;7.842;2023-04-01T04:05:18;0.60;;;0.60;;
78752;SDS011;68072;51.688;7.842;2023-04-01T04:07:43;0.82;;;0.77;;
78752;SDS011;68072;51.688;7.842;2023-04-01T04:10:09;0.90;;;0.90;;
78752;SDS011;68072;51.688;7.842;2023-04-01T04:12:34;0.60;;;0.60;;
78752;SDS011;68072;51.688;7.842;2023-04-01T04:15:00;1.10;;;0.70;;
78752;SDS011;68072;51.688;7.842;2023-04-01T04:17:25;0.50;;;0.50;;
78752;SDS011;68072;51.688;7.842;2023-04-01T04:19:51;0.95;;;0.68;;
78752;SDS011;68072;51.688;7.842;2023-04-01T04:22:16;0.77;;;0.77;;
78752;SDS011;68072;51.688;7.842;2023-04-01T04:24:42;1.20;;;0.90;;
78752;SDS011;68072;51.688;7.842;2023-04-01T04:27:07;0.77;;;0.77;;
78752;SDS011;68072;51.688;7.842;2023-04-01T04:29:33;2.83;;;0.70;;
78752;SDS011;68072;51.688;7.842;2023-04-01T04:31:58;1.15;;;1.00;;
78752;SDS011;68072;51.688;7.842;2023-04-01T04:34:23;2.47;;;0.90;;
78752;SDS011;68072;51.688;7.842;2023-04-01T04:36:49;1.85;;;0.70;;
78752;SDS011;68072;51.688;7.842;2023-04-01T04:39:15;2.95;;;0.70;;
78752;SDS011;68072;51.688;7.842;2023-04-01T04:41:40;0.77;;;0.77;;
78752;SDS011;68072;51.688;7.842;2023-04-01T04:44:06;0.75;;;0.75;;
78752;SDS011;68072;51.688;7.842;2023-04-01T04:46:31;2.03;;;0.95;;
78752;SDS011;68072;51.688;7.842;2023-04-01T04:48:56;1.13;;;0.60;;
78752;SDS011;68072;51.688;7.842;2023-04-01T04:51:22;1.48;;;0.82;;
78752;SDS011;68072;51.688;7.842;2023-04-01T04:53:48;0.85;;;0.85;;
78752;SDS011;68072;51.688;7.842;2023-04-01T04:56:17;0.98;;;0.98;;
78752;SDS011;68072;51.688;7.842;2023-04-01T04:58:43;1.30;;;1.20;;
78752;SDS011;68072;51.688;7.842;2023-04-01T05:01:12;0.65;;;0.65;;
78752;SDS011;68072;51.688;7.842;2023-04-01T05:03:39;0.98;;;0.80;;
78752;SDS011;68072;51.688;7.842;2023-04-01T05:06:05;1.30;;;1.20;;
78752;SDS011;68072;51.688;7.842;2023-04-01T05:10:58;0.63;;;0.63;;
78752;SDS011;68072;51.688;7.842;2023-04-01T05:13:23;1.15;;;0.95;;
78752;SDS011;68072;51.688;7.842;2023-04-01T05:15:49;0.70;;;0.70;;
78752;SDS011;68072;51.688;7.842;2023-04-01T05:18:15;1.15;;;0.90;;
78752;SDS011;68072;51.688;7.842;2023-04-01T05:20:45;0.90;;;0.90;;
78752;SDS011;68072;51.688;7.842;2023-04-01T05:23:15;1.73;;;1.15;;
78752;SDS011;68072;51.688;7.842;2023-04-01T05:25:41;2.67;;;0.85;;
78752;SDS011;68072;51.688;7.842;2023-04-01T05:28:06;1.27;;;1.10;;
78752;SDS011;68072;51.688;7.842;2023-04-01T05:30:32;1.40;;;1.30;;
78752;SDS011;68072;51.688;7.842;2023-04-01T05:32:57;0.98;;;0.98;;
78752;SDS011;68072;51.688;7.842;2023-04-01T05:35:23;1.80;;;1.23;;
78752;SDS011;68072;51.688;7.842;2023-04-01T05:37:49;1.05;;;1.05;;
78752;SDS011;68072;51.688;7.842;2023-04-01T05:40:14;1.40;;;1.30;;
78752;SDS011;68072;51.688;7.842;2023-04-01T05:42:40;1.75;;;1.65;;
78752;SDS011;68072;51.688;7.842;2023-04-01T05:45:05;1.40;;;1.02;;
78752;SDS011;68072;51.688;7.842;2023-04-01T05:47:31;2.15;;;1.38;;
78752;SDS011;68072;51.688;7.842;2023-04-01T05:49:56;1.50;;;1.40;;
78752;SDS011;68072;51.688;7.842;2023-04-01T05:52:22;1.40;;;1.30;;
78752;SDS011;68072;51.688;7.842;2023-04-01T05:54:47;1.30;;;1.20;;
78752;SDS011;68072;51.688;7.842;2023-04-01T05:57:12;1.70;;;1.25;;
78752;SDS011;68072;51.688;7.842;2023-04-01T05:59:38;1.42;;;1.17;;
78752;SDS011;68072;51.688;7.842;2023-04-01T06:02:03;2.28;;;1.30;;
78752;SDS011;68072;51.688;7.842;2023-04-01T06:04:32;1.50;;;1.40;;
78752;SDS011;68072;51.688;7.842;2023-04-01T06:07:05;1.17;;;1.15;;
78752;SDS011;68072;51.688;7.842;2023-04-01T06:09:35;1.25;;;1.20;;
78752;SDS011;68072;51.688;7.842;2023-04-01T06:12:15;2.15;;;1.52;;
78752;SDS011;68072;51.688;7.842;2023-04-01T06:17:41;1.77;;;1.15;;
78752;SDS011;68072;51.688;7.842;2023-04-01T06:28:41;1.73;;;1.33;;
78752;SDS011;68072;51.688;7.842;2023-04-01T06:31:18;1.50;;;1.40;;
78752;SDS011;68072;51.688;7.842;2023-04-01T06:50:26;3.95;;;1.55;;
78752;SDS011;68072;51.688;7.842;2023-04-01T06:58:51;1.63;;;1.15;;
78752;SDS011;68072;51.688;7.842;2023-04-01T07:01:29;1.77;;;1.67;;
78752;SDS011;68072;51.688;7.842;2023-04-01T07:03:59;1.25;;;1.23;;
78752;SDS011;68072;51.688;7.842;2023-04-01T07:06:38;1.73;;;1.60;;
78752;SDS011;68072;51.688;7.842;2023-04-01T07:09:18;1.60;;;1.50;;
78752;SDS011;68072;51.688;7.842;2023-04-01T07:11:45;1.60;;;1.50;;
78752;SDS011;68072;51.688;7.842;2023-04-01T07:14:22;1.58;;;1.48;;
78752;SDS011;68072;51.688;7.842;2023-04-01T07:19:22;1.55;;;1.30;;
78752;SDS011;68072;51.688;7.842;2023-04-01T07:21:54;1.40;;;1.30;;
78752;SDS011;68072;51.688;7.842;2023-04-01T07:24:33;1.50;;;1.40;;
78752;SDS011;68072;51.688;7.842;2023-04-01T07:27:00;1.55;;;1.30;;
78752;SDS011;68072;51.688;7.842;2023-04-01T07:29:26;1.17;;;1.00;;
78752;SDS011;68072;51.688;7.842;2023-04-01T07:34:38;1.77;;;1.58;;
78752;SDS011;68072;51.688;7.842;2023-04-01T07:37:21;1.60;;;1.45;;
78752;SDS011;68072;51.688;7.842;2023-04-01T07:50:35;1.20;;;1.10;;
78752;SDS011;68072;51.688;7.842;2023-04-01T07:53:08;2.42;;;1.27;;
78752;SDS011;68072;51.688;7.842;2023-04-01T08:00:47;2.25;;;1.20;;
78752;SDS011;68072;51.688;7.842;2023-04-01T08:03:21;0.95;;;0.95;;
78752;SDS011;68072;51.688;7.842;2023-04-01T08:08:44;1.05;;;1.05;;
78752;SDS011;68072;51.688;7.842;2023-04-01T08:11:21;1.02;;;1.02;;
78752;SDS011;68072;51.688;7.842;2023-04-01T08:19:03;1.20;;;1.10;;
78752;SDS011;68072;51.688;7.842;2023-04-01T08:21:42;1.00;;;1.00;;
78752;SDS011;68072;51.688;7.842;2023-04-01T08:24:56;0.82;;;0.82;;
78752;SDS011;68072;51.688;7.842;2023-04-01T08:27:06;1.38;;;1.27;;
78752;SDS011;68072;51.688;7.842;2023-04-01T08:29:39;2.22;;;1.33;;
78752;SDS011;68072;51.688;7.842;2023-04-01T08:34:39;0.90;;;0.90;;
78752;SDS011;68072;51.688;7.842;2023-04-01T08:37:11;1.00;;;1.00;;
78752;SDS011;68072;51.688;7.842;2023-04-01T08:40:14;0.88;;;0.88;;
78752;SDS011;68072;51.688;7.842;2023-04-01T08:48:17;1.42;;;1.05;;
78752;SDS011;68072;51.688;7.842;2023-04-01T08:51:01;1.10;;;1.05;;
78752;SDS011;68072;51.688;7.842;2023-04-01T09:06:36;1.27;;;1.17;;
78752;SDS011;68072;51.688;7.842;2023-04-01T09:25:58;1.40;;;1.30;;
78752;SDS011;68072;51.688;7.842;2023-04-01T09:37:09;1.75;;;1.35;;
78752;SDS011;68072;51.688;7.842;2023-04-01T09:39:50;2.28;;;1.17;;
78752;SDS011;68072;51.688;7.842;2023-04-01T09:42:32;1.30;;;1.20;;
78752;SDS011;68072;51.688;7.842;2023-04-01T09:50:47;1.52;;;1.42;;
78752;SDS011;68072;51.688;7.842;2023-04-01T10:07:10;1.27;;;1.17;;
78752;SDS011;68072;51.688;7.842;2023-04-01T10:25:53;1.55;;;1.40;;
78752;SDS011;68072;51.688;7.842;2023-04-01T10:34:27;3.42;;;1.90;;
78752;SDS011;68072;51.688;7.842;2023-04-01T10:36:54;2.78;;;2.15;;
78752;SDS011;68072;51.688;7.842;2023-04-01T10:39:29;1.95;;;1.75;;
78752;SDS011;68072;51.688;7.842;2023-04-01T10:50:53;2.55;;;2.20;;
78752;SDS011;68072;51.688;7.842;2023-04-01T10:53:42;3.03;;;2.17;;
78752;SDS011;68072;51.688;7.842;2023-04-01T11:27:49;4.93;;;3.38;;
78752;SDS011;68072;51.688;7.842;2023-04-01T11:33:04;7.45;;;4.05;;
78752;SDS011;68072;51.688;7.842;2023-04-01T11:38:34;4.75;;;3.38;;
78752;SDS011;68072;51.688;7.842;2023-04-01T11:41:35;7.25;;;3.42;;
78752;SDS011;68072;51.688;7.842;2023-04-01T11:44:07;3.75;;;3.13;;
78752;SDS011;68072;51.688;7.842;2023-04-01T11:49:49;3.83;;;2.67;;
78752;SDS011;68072;51.688;7.842;2023-04-01T11:52:41;3.20;;;2.88;;
78752;SDS011;68072;51.688;7.842;2023-04-01T11:57:51;4.38;;;3.63;;
78752;SDS011;68072;51.688;7.842;2023-04-01T12:00:50;6.03;;;4.13;;
78752;SDS011;68072;51.688;7.842;2023-04-01T12:06:51;4.85;;;3.22;;
78752;SDS011;68072;51.688;7.842;2023-04-01T12:14:36;4.40;;;2.97;;
78752;SDS011;68072;51.688;7.842;2023-04-01T12:17:15;4.53;;;3.30;;
78752;SDS011;68072;51.688;7.842;2023-04-01T12:39:22;3.83;;;2.67;;
78752;SDS011;68072;51.688;7.842;2023-04-01T12:42:17;3.60;;;3.28;;
78752;SDS011;68072;51.688;7.842;2023-04-01T12:45:16;5.47;;;3.88;;
78752;SDS011;68072;51.688;7.842;2023-04-01T12:50:52;3.53;;;2.97;;
78752;SDS011;68072;51.688;7.842;2023-04-01T13:10:54;3.97;;;3.15;;
78752;SDS011;68072;51.688;7.842;2023-04-01T13:13:44;4.88;;;4.15;;
78752;SDS011;68072;51.688;7.842;2023-04-01T13:16:27;4.82;;;4.13;;
78752;SDS011;68072;51.688;7.842;2023-04-01T13:24:40;5.63;;;3.85;;
78752;SDS011;68072;51.688;7.842;2023-04-01T13:41:38;5.40;;;4.07;;
78752;SDS011;68072;51.688;7.842;2023-04-01T13:49:56;4.93;;;4.03;;
78752;SDS011;68072;51.688;7.842;2023-04-01T14:01:12;7.28;;;5.13;;
78752;SDS011;68072;51.688;7.842;2023-04-01T14:12:05;5.50;;;4.60;;
78752;SDS011;68072;51.688;7.842;2023-04-01T14:17:50;6.65;;;3.95;;
78752;SDS011;68072;51.688;7.842;2023-04-01T14:28:20;8.18;;;5.82;;
78752;SDS011;68072;51.688;7.842;2023-04-01T14:31:54;8.98;;;5.28;;
78752;SDS011;68072;51.688;7.842;2023-04-01T14:36:53;7.72;;;5.15;;
78752;SDS011;68072;51.688;7.842;2023-04-01T14:58:00;4.43;;;3.92;;
78752;SDS011;68072;51.688;7.842;2023-04-01T15:03:29;7.22;;;5.15;;
78752;SDS011;68072;51.688;7.842;2023-04-01T15:06:45;7.13;;;5.05;;
78752;SDS011;68072;51.688;7.842;2023-04-01T15:09:00;9.05;;;6.13;;
78752;SDS011;68072;51.688;7.842;2023-04-01T15:14:04;6.77;;;4.90;;
78752;SDS011;68072;51.688;7.842;2023-04-01T15:28:03;13.13;;;7.80;;
78752;SDS011;68072;51.688;7.842;2023-04-01T15:41:51;7.70;;;5.25;;
78752;SDS011;68072;51.688;7.842;2023-04-01T15:49:53;7.63;;;5.25;;
78752;SDS011;68072;51.688;7.842;2023-04-01T15:55:17;6.10;;;4.50;;
78752;SDS011;68072;51.688;7.842;2023-04-01T16:03:30;9.40;;;6.50;;
78752;SDS011;68072;51.688;7.842;2023-04-01T16:06:11;11.30;;;7.30;;
78752;SDS011;68072;51.688;7.842;2023-04-01T16:09:11;11.45;;;7.45;;
78752;SDS011;68072;51.688;7.842;2023-04-01T16:17:48;14.00;;;8.73;;
78752;SDS011;68072;51.688;7.842;2023-04-01T16:20:35;14.32;;;9.02;;
78752;SDS011;68072;51.688;7.842;2023-04-01T16:23:16;17.00;;;9.20;;
78752;SDS011;68072;51.688;7.842;2023-04-01T16:25:49;16.77;;;9.93;;
78752;SDS011;68072;51.688;7.842;2023-04-01T16:34:16;16.25;;;9.95;;
78752;SDS011;68072;51.688;7.842;2023-04-01T16:37:19;18.00;;;11.70;;
78752;SDS011;68072;51.688;7.842;2023-04-01T16:47:40;19.57;;;11.00;;
78752;SDS011;68072;51.688;7.842;2023-04-01T16:55:18;22.00;;;11.13;;
78752;SDS011;68072;51.688;7.842;2023-04-01T16:57:52;20.45;;;11.77;;
78752;SDS011;68072;51.688;7.842;2023-04-01T17:05:57;21.85;;;12.15;;
78752;SDS011;68072;51.688;7.842;2023-04-01T17:11:35;22.25;;;12.02;;
78752;SDS011;68072;51.688;7.842;2023-04-01T17:19:44;22.00;;;11.73;;
78752;SDS011;68072;51.688;7.842;2023-04-01T17:25:27;23.02;;;12.00;;
78752;SDS011;68072;51.688;7.842;2023-04-01T17:28:06;18.38;;;10.55;;
78752;SDS011;68072;51.688;7.842;2023-04-01T17:30:51;18.85;;;10.82;;
78752;SDS011;68072;51.688;7.842;2023-04-01T18:00:12;22.17;;;12.07;;
78752;SDS011;68072;51.688;7.842;2023-04-01T18:11:00;24.00;;;12.07;;
78752;SDS011;68072;51.688;7.842;2023-04-01T18:13:45;25.02;;;12.73;;
78752;SDS011;68072;51.688;7.842;2023-04-01T18:16:15;26.88;;;13.80;;
78752;SDS011;68072;51.688;7.842;2023-04-01T18:19:07;23.83;;;12.68;;
78752;SDS011;68072;51.688;7.842;2023-04-01T18:24:18;23.13;;;12.82;;
78752;SDS011;68072;51.688;7.842;2023-04-01T18:27:32;25.35;;;13.93;;
78752;SDS011;68072;51.688;7.842;2023-04-01T18:42:55;29.02;;;13.60;;
78752;SDS011;68072;51.688;7.842;2023-04-01T18:45:27;24.92;;;12.57;;
78752;SDS011;68072;51.688;7.842;2023-04-01T18:50:37;25.20;;;12.70;;
78752;SDS011;68072;51.688;7.842;2023-04-01T18:53:22;26.77;;;13.05;;
78752;SDS011;68072;51.688;7.842;2023-04-01T18:55:55;28.40;;;14.43;;
78752;SDS011;68072;51.688;7.842;2023-04-01T19:04:10;27.08;;;13.40;;
78752;SDS011;68072;51.688;7.842;2023-04-01T19:09:18;25.42;;;13.52;;
78752;SDS011;68072;51.688;7.842;2023-04-01T19:19:56;30.90;;;15.18;;
78752;SDS011;68072;51.688;7.842;2023-04-01T19:22:53;32.20;;;14.05;;
78752;SDS011;68072;51.688;7.842;2023-04-01T19:25:34;30.60;;;14.10;;
78752;SDS011;68072;51.688;7.842;2023-04-01T19:28:13;34.70;;;15.20;;
78752;SDS011;68072;51.688;7.842;2023-04-01T19:47:12;2.67;;;2.28;;
78752;SDS011;68072;51.688;7.842;2023-04-01T19:49:50;2.92;;;2.47;;
78752;SDS011;68072;51.688;7.842;2023-04-01T19:52:31;2.97;;;2.50;;
78752;SDS011;68072;51.688;7.842;2023-04-01T19:55:02;3.33;;;2.67;;
78752;SDS011;68072;51.688;7.842;2023-04-01T19:57:51;3.35;;;2.72;;
78752;SDS011;68072;51.688;7.842;2023-04-01T20:00:24;2.47;;;2.28;;
78752;SDS011;68072;51.688;7.842;2023-04-01T20:08:41;4.05;;;2.72;;
78752;SDS011;68072;51.688;7.842;2023-04-01T20:16:40;4.32;;;2.65;;
78752;SDS011;68072;51.688;7.842;2023-04-01T20:19:35;2.22;;;2.03;;
78752;SDS011;68072;51.688;7.842;2023-04-01T20:22:08;3.67;;;2.20;;
78752;SDS011;68072;51.688;7.842;2023-04-01T20:24:54;2.33;;;2.13;;
78752;SDS011;68072;51.688;7.842;2023-04-01T20:27:30;2.70;;;2.30;;
78752;SDS011;68072;51.688;7.842;2023-04-01T20:41:21;3.38;;;2.63;;
78752;SDS011;68072;51.688;7.842;2023-04-01T20:46:39;3.78;;;2.10;;
78752;SDS011;68072;51.688;7.842;2023-04-01T20:49:15;2.58;;;2.28;;
78752;SDS011;68072;51.688;7.842;2023-04-01T20:52:02;2.40;;;1.90;;
78752;SDS011;68072;51.688;7.842;2023-04-01T20:55:01;2.28;;;2.08;;
78752;SDS011;68072;51.688;7.842;2023-04-01T21:00:40;2.30;;;1.73;;
78752;SDS011;68072;51.688;7.842;2023-04-01T21:03:23;4.25;;;2.20;;
78752;SDS011;68072;51.688;7.842;2023-04-01T21:05:57;3.42;;;2.58;;
78752;SDS011;68072;51.688;7.842;2023-04-01T21:16:51;2.17;;;1.80;;
78752;SDS011;68072;51.688;7.842;2023-04-01T21:30:48;4.18;;;2.72;;
78752;SDS011;68072;51.688;7.842;2023-04-01T21:33:48;3.40;;;2.45;;
78752;SDS011;68072;51.688;7.842;2023-04-01T21:41:34;2.35;;;2.10;;
78752;SDS011;68072;51.688;7.842;2023-04-01T21:47:19;2.03;;;1.88;;
78752;SDS011;68072;51.688;7.842;2023-04-01T22:14:55;3.35;;;2.53;;
78752;SDS011;68072;51.688;7.842;2023-04-01T22:17:38;2.17;;;2.00;;
78752;SDS011;68072;51.688;7.842;2023-04-01T22:20:15;2.42;;;1.83;;
78752;SDS011;68072;51.688;7.842;2023-04-01T22:22:55;1.95;;;1.85;;
78752;SDS011;68072;51.688;7.842;2023-04-01T22:25:25;2.35;;;2.15;;
78752;SDS011;68072;51.688;7.842;2023-04-01T22:27:58;2.40;;;2.20;;
78752;SDS011;68072;51.688;7.842;2023-04-01T22:32:55;2.53;;;2.25;;
78752;SDS011;68072;51.688;7.842;2023-04-01T22:38:17;2.50;;;2.15;;
78752;SDS011;68072;51.688;7.842;2023-04-01T22:40:55;3.53;;;2.60;;
78752;SDS011;68072;51.688;7.842;2023-04-01T22:46:17;3.05;;;2.40;;
78752;SDS011;68072;51.688;7.842;2023-04-01T22:51:17;3.83;;;2.63;;
78752;SDS011;68072;51.688;7.842;2023-04-01T22:56:54;3.70;;;3.05;;
78752;SDS011;68072;51.688;7.842;2023-04-01T23:01:53;6.90;;;4.07;;
78752;SDS011;68072;51.688;7.842;2023-04-01T23:04:24;3.50;;;3.17;;
78752;SDS011;68072;51.688;7.842;2023-04-01T23:06:57;4.85;;;3.33;;
78752;SDS011;68072;51.688;7.842;2023-04-01T23:09:29;4.47;;;3.50;;
78752;SDS011;68072;51.688;7.842;2023-04-01T23:12:03;3.97;;;3.20;;
78752;SDS011;68072;51.688;7.842;2023-04-01T23:20:00;3.80;;;3.07;;
78752;SDS011;68072;51.688;7.842;2023-04-01T23:22:56;3.40;;;2.90;;
78752;SDS011;68072;51.688;7.842;2023-04-01T23:28:23;4.65;;;3.25;;
78752;SDS011;68072;51.688;7.842;2023-04-01T23:30:50;5.90;;;4.13;;
78752;SDS011;68072;51.688;7.842;2023-04-01T23:33:21;6.22;;;4.43;;
78752;SDS011;68072;51.688;7.842;2023-04-01T23:35:52;6.88;;;4.00;;
78752;SDS011;68072;51.688;7.842;2023-04-01T23:38:20;3.25;;;2.85;;
78752;SDS011;68072;51.688;7.842;2023-04-01T23:40:50;5.00;;;3.92;;
78752;SDS011;68072;51.688;7.842;2023-04-01T23:43:30;4.95;;;3.72;;
78752;SDS011;68072;51.688;7.842;2023-04-01T23:46:02;4.20;;;3.75;;
78752;SDS011;68072;51.688;7.842;2023-04-01T23:48:42;5.63;;;3.58;;
78752;SDS011;68072;51.688;7.842;2023-04-01T23:53:45;5.40;;;4.13;;
78752;SDS011;68072;51.688;7.842;2023-04-01T23:56:11;5.22;;;3.97;;
